sensor_id;sensor_type;location;lat;lon;timestamp;pressure;altitude;pressure_sealevel;temperature;humidity
24558;BME280;12726;49.148;8.582;2022-10-23T00:01:24;100417.28;;;11.43;100.00
24558;BME280;12726;49.148;8.582;2022-10-23T00:04:11;100405.22;;;11.45;100.00
24558;BME280;12726;49.148;8.582;2022-10-23T00:06:57;100412.66;;;11.50;100.00
24558;BME280;12726;49.148;8.582;2022-10-23T00:09:43;100410.97;;;11.55;100.00
24558;BME280;12726;49.148;8.582;2022-10-23T00:12:30;100396.44;;;11.56;100.00
24558;BME280;12726;49.148;8.582;2022-10-23T00:15:18;100396.03;;;11.53;100.00
24558;BME280;12726;49.148;8.582;2022-10-23T00:18:03;100393.13;;;11.54;100.00
24558;BME280;12726;49.148;8.582;2022-10-23T00:20:48;100393.94;;;11.55;100.00
24558;BME280;12726;49.148;8.582;2022-10-23T00:23:34;100391.03;;;11.56;100.00
24558;BME280;12726;49.148;8.582;2022-10-23T00:26:20;100394.31;;;11.58;100.00
24558;BME280;12726;49.148;8.582;2022-10-23T00:29:07;100392.09;;;11.55;100.00
24558;BME280;12726;49.148;8.582;2022-10-23T00:31:53;100388.13;;;11.58;100.00
24558;BME280;12726;49.148;8.582;2022-10-23T00:34:39;100388.50;;;11.61;100.00
24558;BME280;12726;49.148;8.582;2022-10-23T00:37:24;100384.97;;;11.61;100.00
24558;BME280;12726;49.148;8.582;2022-10-23T00:40:10;100378.75;;;11.60;100.00
24558;BME280;12726;49.148;8.582;2022-10-23T00:42:56;100381.66;;;11.59;100.00
24558;BME280;12726;49.148;8.582;2022-10-23T00:45:42;100381.09;;;11.57;100.00
24558;BME280;12726;49.148;8.582;2022-10-23T00:48:28;100388.34;;;11.56;100.00
24558;BME280;12726;49.148;8.582;2022-10-23T00:51:13;100386.47;;;11.57;100.00
24558;BME280;12726;49.148;8.582;2022-10-23T00:54:00;100390.63;;;11.53;100.00
24558;BME280;12726;49.148;8.582;2022-10-23T00:56:46;100391.09;;;11.50;100.00
24558;BME280;12726;49.148;8.582;2022-10-23T00:59:32;100383.22;;;11.48;100.00
24558;BME280;12726;49.148;8.582;2022-10-23T01:02:19;100381.78;;;11.46;100.00
24558;BME280;12726;49.148;8.582;2022-10-23T01:05:05;100378.25;;;11.45;100.00
24558;BME280;12726;49.148;8.582;2022-10-23T01:07:55;100381.00;;;11.38;100.00
24558;BME280;12726;49.148;8.582;2022-10-23T01:10:43;100375.44;;;11.33;100.00
24558;BME280;12726;49.148;8.582;2022-10-23T01:13:36;100365.34;;;11.29;100.00
24558;BME280;12726;49.148;8.582;2022-10-23T01:16:29;100378.41;;;11.25;100.00
24558;BME280;12726;49.148;8.582;2022-10-23T01:19:30;100366.00;;;11.18;100.00
24558;BME280;12726;49.148;8.582;2022-10-23T01:22:35;100364.81;;;11.14;100.00
24558;BME280;12726;49.148;8.582;2022-10-23T01:25:35;100365.00;;;11.12;100.00
24558;BME280;12726;49.148;8.582;2022-10-23T01:28:31;100368.97;;;11.10;100.00
24558;BME280;12726;49.148;8.582;2022-10-23T01:31:22;100360.66;;;11.11;100.00
24558;BME280;12726;49.148;8.582;2022-10-23T01:34:13;100361.28;;;11.13;100.00
24558;BME280;12726;49.148;8.582;2022-10-23T01:37:00;100359.63;;;11.12;100.00
24558;BME280;12726;49.148;8.582;2022-10-23T01:39:48;100360.28;;;11.08;100.00
24558;BME280;12726;49.148;8.582;2022-10-23T01:42:39;100359.06;;;11.04;100.00
24558;BME280;12726;49.148;8.582;2022-10-23T01:45:33;100352.47;;;10.99;100.00
24558;BME280;12726;49.148;8.582;2022-10-23T01:48:24;100346.50;;;10.91;100.00
24558;BME280;12726;49.148;8.582;2022-10-23T01:51:12;100355.56;;;10.96;100.00
24558;BME280;12726;49.148;8.582;2022-10-23T01:53:59;100344.78;;;10.96;100.00
24558;BME280;12726;49.148;8.582;2022-10-23T01:56:47;100351.19;;;11.02;100.00
24558;BME280;12726;49.148;8.582;2022-10-23T01:59:35;100356.72;;;11.14;100.00
24558;BME280;12726;49.148;8.582;2022-10-23T02:02:25;100345.63;;;11.28;100.00
24558;BME280;12726;49.148;8.582;2022-10-23T02:05:16;100326.16;;;11.26;100.00
24558;BME280;12726;49.148;8.582;2022-10-23T02:08:02;100327.09;;;11.38;100.00
24558;BME280;12726;49.148;8.582;2022-10-23T02:10:51;100318.94;;;11.45;100.00
24558;BME280;12726;49.148;8.582;2022-10-23T02:13:43;100321.28;;;11.42;100.00
24558;BME280;12726;49.148;8.582;2022-10-23T02:16:34;100323.56;;;11.38;100.00
24558;BME280;12726;49.148;8.582;2022-10-23T02:19:27;100330.44;;;11.34;100.00
24558;BME280;12726;49.148;8.582;2022-10-23T02:22:17;100321.13;;;11.30;100.00
24558;BME280;12726;49.148;8.582;2022-10-23T02:25:08;100331.75;;;11.25;100.00
24558;BME280;12726;49.148;8.582;2022-10-23T02:27:58;100328.28;;;11.18;100.00
24558;BME280;12726;49.148;8.582;2022-10-23T02:30:47;100337.25;;;11.12;100.00
24558;BME280;12726;49.148;8.582;2022-10-23T02:33:34;100307.22;;;11.08;100.00
24558;BME280;12726;49.148;8.582;2022-10-23T02:36:22;100324.19;;;11.09;100.00
24558;BME280;12726;49.148;8.582;2022-10-23T02:39:08;100318.38;;;11.12;100.00
24558;BME280;12726;49.148;8.582;2022-10-23T02:41:56;100314.88;;;11.11;100.00
24558;BME280;12726;49.148;8.582;2022-10-23T02:44:53;100309.47;;;11.11;100.00
24558;BME280;12726;49.148;8.582;2022-10-23T02:47:51;100303.47;;;11.09;100.00
24558;BME280;12726;49.148;8.582;2022-10-23T02:50:45;100307.44;;;11.07;100.00
24558;BME280;12726;49.148;8.582;2022-10-23T02:53:38;100300.41;;;11.06;100.00
24558;BME280;12726;49.148;8.582;2022-10-23T02:56:35;100308.53;;;10.99;100.00
24558;BME280;12726;49.148;8.582;2022-10-23T02:59:28;100295.94;;;10.93;100.00
24558;BME280;12726;49.148;8.582;2022-10-23T03:02:19;100303.59;;;10.89;100.00
24558;BME280;12726;49.148;8.582;2022-10-23T03:05:08;100298.69;;;10.86;100.00
24558;BME280;12726;49.148;8.582;2022-10-23T03:07:54;100302.63;;;10.84;100.00
24558;BME280;12726;49.148;8.582;2022-10-23T03:10:41;100293.34;;;10.80;100.00
24558;BME280;12726;49.148;8.582;2022-10-23T03:13:26;100297.06;;;10.79;100.00
24558;BME280;12726;49.148;8.582;2022-10-23T03:16:12;100299.13;;;10.77;100.00
24558;BME280;12726;49.148;8.582;2022-10-23T03:18:57;100292.09;;;10.76;100.00
24558;BME280;12726;49.148;8.582;2022-10-23T03:21:42;100294.16;;;10.74;100.00
24558;BME280;12726;49.148;8.582;2022-10-23T03:24:28;100295.25;;;10.73;100.00
24558;BME280;12726;49.148;8.582;2022-10-23T03:27:14;100304.13;;;10.73;100.00
24558;BME280;12726;49.148;8.582;2022-10-23T03:30:00;100293.13;;;10.75;100.00
24558;BME280;12726;49.148;8.582;2022-10-23T03:32:46;100296.44;;;10.77;100.00
24558;BME280;12726;49.148;8.582;2022-10-23T03:35:31;100293.09;;;10.81;100.00
24558;BME280;12726;49.148;8.582;2022-10-23T03:38:16;100300.13;;;10.82;100.00
24558;BME280;12726;49.148;8.582;2022-10-23T03:41:02;100302.63;;;10.84;100.00
24558;BME280;12726;49.148;8.582;2022-10-23T03:43:49;100301.38;;;10.86;100.00
24558;BME280;12726;49.148;8.582;2022-10-23T03:46:34;100305.88;;;10.92;100.00
24558;BME280;12726;49.148;8.582;2022-10-23T03:49:19;100304.19;;;10.98;100.00
24558;BME280;12726;49.148;8.582;2022-10-23T03:52:05;100293.56;;;11.03;100.00
24558;BME280;12726;49.148;8.582;2022-10-23T03:54:50;100299.38;;;11.07;100.00
24558;BME280;12726;49.148;8.582;2022-10-23T03:57:36;100296.00;;;11.11;100.00
24558;BME280;12726;49.148;8.582;2022-10-23T04:00:23;100289.38;;;11.14;100.00
24558;BME280;12726;49.148;8.582;2022-10-23T04:03:08;100280.00;;;11.16;100.00
24558;BME280;12726;49.148;8.582;2022-10-23T04:05:53;100278.13;;;11.17;100.00
24558;BME280;12726;49.148;8.582;2022-10-23T04:08:38;100276.03;;;11.19;100.00
24558;BME280;12726;49.148;8.582;2022-10-23T04:11:24;100274.19;;;11.19;100.00
24558;BME280;12726;49.148;8.582;2022-10-23T04:14:10;100271.28;;;11.21;100.00
24558;BME280;12726;49.148;8.582;2022-10-23T04:16:58;100271.06;;;11.22;100.00
24558;BME280;12726;49.148;8.582;2022-10-23T04:19:43;100273.91;;;11.27;100.00
24558;BME280;12726;49.148;8.582;2022-10-23T04:22:28;100269.94;;;11.30;100.00
24558;BME280;12726;49.148;8.582;2022-10-23T04:25:14;100273.47;;;11.30;100.00
24558;BME280;12726;49.148;8.582;2022-10-23T04:27:59;100279.66;;;11.31;100.00
24558;BME280;12726;49.148;8.582;2022-10-23T04:30:45;100282.16;;;11.32;100.00
24558;BME280;12726;49.148;8.582;2022-10-23T04:33:31;100284.41;;;11.35;100.00
24558;BME280;12726;49.148;8.582;2022-10-23T04:36:17;100266.13;;;11.37;100.00
24558;BME280;12726;49.148;8.582;2022-10-23T04:39:02;100256.19;;;11.38;100.00
24558;BME280;12726;49.148;8.582;2022-10-23T04:41:47;100255.97;;;11.39;100.00
24558;BME280;12726;49.148;8.582;2022-10-23T04:44:32;100254.72;;;11.42;100.00
24558;BME280;12726;49.148;8.582;2022-10-23T04:47:18;100259.63;;;11.45;100.00
24558;BME280;12726;49.148;8.582;2022-10-23T04:50:06;100268.75;;;11.51;100.00
24558;BME280;12726;49.148;8.582;2022-10-23T04:52:53;100257.94;;;11.51;100.00
24558;BME280;12726;49.148;8.582;2022-10-23T04:55:38;100257.72;;;11.52;100.00
24558;BME280;12726;49.148;8.582;2022-10-23T04:58:25;100259.16;;;11.55;100.00
24558;BME280;12726;49.148;8.582;2022-10-23T05:01:10;100265.16;;;11.57;100.00
24558;BME280;12726;49.148;8.582;2022-10-23T05:03:56;100288.13;;;11.59;100.00
24558;BME280;12726;49.148;8.582;2022-10-23T05:06:43;100273.59;;;11.60;100.00
24558;BME280;12726;49.148;8.582;2022-10-23T05:09:28;100272.34;;;11.63;100.00
24558;BME280;12726;49.148;8.582;2022-10-23T05:12:14;100264.25;;;11.63;100.00
24558;BME280;12726;49.148;8.582;2022-10-23T05:14:59;100257.56;;;11.65;100.00
24558;BME280;12726;49.148;8.582;2022-10-23T05:17:47;100243.88;;;11.67;100.00
24558;BME280;12726;49.148;8.582;2022-10-23T05:20:35;100242.81;;;11.68;100.00
24558;BME280;12726;49.148;8.582;2022-10-23T05:23:23;100243.66;;;11.68;100.00
24558;BME280;12726;49.148;8.582;2022-10-23T05:26:09;100240.75;;;11.70;100.00
24558;BME280;12726;49.148;8.582;2022-10-23T05:28:54;100237.00;;;11.71;100.00
24558;BME280;12726;49.148;8.582;2022-10-23T05:31:39;100231.59;;;11.71;100.00
24558;BME280;12726;49.148;8.582;2022-10-23T05:34:26;100231.34;;;11.72;100.00
24558;BME280;12726;49.148;8.582;2022-10-23T05:37:14;100225.78;;;11.74;100.00
24558;BME280;12726;49.148;8.582;2022-10-23T05:40:01;100235.53;;;11.75;100.00
24558;BME280;12726;49.148;8.582;2022-10-23T05:42:47;100242.56;;;11.76;100.00
24558;BME280;12726;49.148;8.582;2022-10-23T05:45:32;100252.53;;;11.75;100.00
24558;BME280;12726;49.148;8.582;2022-10-23T05:48:18;100247.13;;;11.75;100.00
24558;BME280;12726;49.148;8.582;2022-10-23T05:51:04;100239.03;;;11.75;100.00
24558;BME280;12726;49.148;8.582;2022-10-23T05:53:51;100235.53;;;11.75;100.00
24558;BME280;12726;49.148;8.582;2022-10-23T05:56:38;100229.31;;;11.74;100.00
24558;BME280;12726;49.148;8.582;2022-10-23T05:59:24;100224.72;;;11.75;100.00
24558;BME280;12726;49.148;8.582;2022-10-23T06:02:09;100222.03;;;11.75;100.00
24558;BME280;12726;49.148;8.582;2022-10-23T06:04:55;100216.25;;;11.71;100.00
24558;BME280;12726;49.148;8.582;2022-10-23T06:07:40;100212.94;;;11.69;100.00
24558;BME280;12726;49.148;8.582;2022-10-23T06:10:26;100220.44;;;11.67;100.00
24558;BME280;12726;49.148;8.582;2022-10-23T06:13:13;100212.34;;;11.67;100.00
24558;BME280;12726;49.148;8.582;2022-10-23T06:15:58;100206.13;;;11.67;100.00
24558;BME280;12726;49.148;8.582;2022-10-23T06:18:44;100198.25;;;11.65;100.00
24558;BME280;12726;49.148;8.582;2022-10-23T06:21:30;100200.06;;;11.71;100.00
24558;BME280;12726;49.148;8.582;2022-10-23T06:24:15;100192.56;;;11.73;100.00
24558;BME280;12726;49.148;8.582;2022-10-23T06:27:01;100197.13;;;11.73;100.00
24558;BME280;12726;49.148;8.582;2022-10-23T06:29:48;100195.81;;;11.82;100.00
24558;BME280;12726;49.148;8.582;2022-10-23T06:32:33;100188.47;;;11.89;100.00
24558;BME280;12726;49.148;8.582;2022-10-23T06:35:19;100191.31;;;11.94;100.00
24558;BME280;12726;49.148;8.582;2022-10-23T06:38:04;100189.00;;;11.98;100.00
24558;BME280;12726;49.148;8.582;2022-10-23T06:40:51;100194.31;;;12.04;100.00
24558;BME280;12726;49.148;8.582;2022-10-23T06:43:37;100186.94;;;12.11;100.00
24558;BME280;12726;49.148;8.582;2022-10-23T06:46:23;100191.81;;;12.21;100.00
24558;BME280;12726;49.148;8.582;2022-10-23T06:49:09;100185.84;;;12.31;100.00
24558;BME280;12726;49.148;8.582;2022-10-23T06:51:55;100183.03;;;12.37;100.00
24558;BME280;12726;49.148;8.582;2022-10-23T06:54:40;100185.66;;;12.44;100.00
24558;BME280;12726;49.148;8.582;2022-10-23T06:57:25;100189.81;;;12.58;100.00
24558;BME280;12726;49.148;8.582;2022-10-23T07:00:12;100195.69;;;12.67;100.00
24558;BME280;12726;49.148;8.582;2022-10-23T07:02:58;100191.94;;;12.68;100.00
24558;BME280;12726;49.148;8.582;2022-10-23T07:05:44;100202.44;;;12.76;100.00
24558;BME280;12726;49.148;8.582;2022-10-23T07:08:30;100195.75;;;12.78;100.00
24558;BME280;12726;49.148;8.582;2022-10-23T07:11:15;100206.91;;;12.82;100.00
24558;BME280;12726;49.148;8.582;2022-10-23T07:14:01;100208.31;;;12.84;100.00
24558;BME280;12726;49.148;8.582;2022-10-23T07:16:46;100213.75;;;12.96;100.00
24558;BME280;12726;49.148;8.582;2022-10-23T07:19:33;100201.31;;;13.07;100.00
24558;BME280;12726;49.148;8.582;2022-10-23T07:22:18;100208.63;;;13.29;100.00
24558;BME280;12726;49.148;8.582;2022-10-23T07:25:05;100212.03;;;13.37;100.00
24558;BME280;12726;49.148;8.582;2022-10-23T07:27:50;100219.31;;;13.36;100.00
24558;BME280;12726;49.148;8.582;2022-10-23T07:30:37;100231.31;;;13.40;100.00
24558;BME280;12726;49.148;8.582;2022-10-23T07:33:24;100239.78;;;13.44;100.00
24558;BME280;12726;49.148;8.582;2022-10-23T07:36:10;100236.25;;;13.55;100.00
24558;BME280;12726;49.148;8.582;2022-10-23T07:38:56;100238.81;;;13.73;100.00
24558;BME280;12726;49.148;8.582;2022-10-23T07:41:41;100233.19;;;14.15;100.00
24558;BME280;12726;49.148;8.582;2022-10-23T07:44:26;100233.63;;;14.46;98.33
24558;BME280;12726;49.148;8.582;2022-10-23T07:47:12;100211.16;;;14.79;96.47
24558;BME280;12726;49.148;8.582;2022-10-23T07:49:58;100228.00;;;14.81;94.16
24558;BME280;12726;49.148;8.582;2022-10-23T07:52:44;100224.00;;;14.84;93.46
24558;BME280;12726;49.148;8.582;2022-10-23T07:55:30;100220.72;;;14.99;93.30
24558;BME280;12726;49.148;8.582;2022-10-23T07:58:15;100205.34;;;15.21;92.41
24558;BME280;12726;49.148;8.582;2022-10-23T08:01:02;100223.63;;;16.02;87.88
24558;BME280;12726;49.148;8.582;2022-10-23T08:03:48;100222.03;;;16.77;85.56
24558;BME280;12726;49.148;8.582;2022-10-23T08:06:33;100211.75;;;17.53;80.24
24558;BME280;12726;49.148;8.582;2022-10-23T08:09:20;100206.13;;;18.22;74.54
24558;BME280;12726;49.148;8.582;2022-10-23T08:12:06;100186.94;;;18.89;73.03
24558;BME280;12726;49.148;8.582;2022-10-23T08:14:51;100187.97;;;19.54;70.24
24558;BME280;12726;49.148;8.582;2022-10-23T08:17:36;100197.63;;;20.06;67.48
24558;BME280;12726;49.148;8.582;2022-10-23T08:20:22;100198.88;;;20.39;63.91
24558;BME280;12726;49.148;8.582;2022-10-23T08:23:08;100196.91;;;20.88;59.56
24558;BME280;12726;49.148;8.582;2022-10-23T08:25:57;100196.69;;;21.14;60.26
24558;BME280;12726;49.148;8.582;2022-10-23T08:28:43;100204.16;;;21.66;58.02
24558;BME280;12726;49.148;8.582;2022-10-23T08:31:28;100190.19;;;22.34;55.64
24558;BME280;12726;49.148;8.582;2022-10-23T08:34:13;100196.66;;;22.43;54.86
24558;BME280;12726;49.148;8.582;2022-10-23T08:36:59;100203.34;;;23.39;52.16
24558;BME280;12726;49.148;8.582;2022-10-23T08:39:44;100196.09;;;24.03;51.00
24558;BME280;12726;49.148;8.582;2022-10-23T08:42:36;100202.69;;;24.56;49.65
24558;BME280;12726;49.148;8.582;2022-10-23T08:45:29;100197.63;;;25.39;47.44
24558;BME280;12726;49.148;8.582;2022-10-23T08:48:18;100194.59;;;25.18;47.71
24558;BME280;12726;49.148;8.582;2022-10-23T08:51:11;100188.94;;;25.54;46.15
24558;BME280;12726;49.148;8.582;2022-10-23T08:54:02;100188.25;;;25.80;45.19
24558;BME280;12726;49.148;8.582;2022-10-23T08:56:53;100180.38;;;25.95;45.82
24558;BME280;12726;49.148;8.582;2022-10-23T08:59:45;100160.59;;;25.93;45.10
24558;BME280;12726;49.148;8.582;2022-10-23T09:02:36;100168.03;;;25.53;44.57
24558;BME280;12726;49.148;8.582;2022-10-23T09:05:26;100170.19;;;25.65;44.51
24558;BME280;12726;49.148;8.582;2022-10-23T09:08:23;100155.53;;;25.95;43.44
24558;BME280;12726;49.148;8.582;2022-10-23T09:11:18;100161.13;;;26.12;43.54
24558;BME280;12726;49.148;8.582;2022-10-23T09:14:29;100147.00;;;26.14;44.23
24558;BME280;12726;49.148;8.582;2022-10-23T09:17:23;100149.97;;;26.26;42.97
24558;BME280;12726;49.148;8.582;2022-10-23T09:20:17;100150.28;;;26.59;43.02
24558;BME280;12726;49.148;8.582;2022-10-23T09:23:07;100157.31;;;26.57;43.25
24558;BME280;12726;49.148;8.582;2022-10-23T09:26:00;100157.13;;;26.27;43.20
24558;BME280;12726;49.148;8.582;2022-10-23T09:28:47;100143.56;;;26.00;44.54
24558;BME280;12726;49.148;8.582;2022-10-23T09:31:32;100139.91;;;26.56;43.11
24558;BME280;12726;49.148;8.582;2022-10-23T09:34:22;100138.63;;;26.54;42.92
24558;BME280;12726;49.148;8.582;2022-10-23T09:37:20;100140.34;;;27.10;41.74
24558;BME280;12726;49.148;8.582;2022-10-23T09:40:17;100134.44;;;27.28;41.25
24558;BME280;12726;49.148;8.582;2022-10-23T09:43:12;100133.56;;;26.90;42.74
24558;BME280;12726;49.148;8.582;2022-10-23T09:46:00;100142.00;;;26.59;41.63
24558;BME280;12726;49.148;8.582;2022-10-23T09:48:56;100137.31;;;26.51;41.88
24558;BME280;12726;49.148;8.582;2022-10-23T09:51:50;100137.13;;;26.22;43.10
24558;BME280;12726;49.148;8.582;2022-10-23T09:54:38;100126.78;;;25.70;43.02
24558;BME280;12726;49.148;8.582;2022-10-23T09:57:30;100135.84;;;25.09;44.11
24558;BME280;12726;49.148;8.582;2022-10-23T10:00:18;100128.13;;;24.31;47.30
24558;BME280;12726;49.148;8.582;2022-10-23T10:03:05;100133.50;;;23.72;49.01
24558;BME280;12726;49.148;8.582;2022-10-23T10:05:59;100110.41;;;23.00;51.43
24558;BME280;12726;49.148;8.582;2022-10-23T10:08:49;100114.94;;;22.58;53.02
24558;BME280;12726;49.148;8.582;2022-10-23T10:11:38;100119.75;;;22.10;52.43
24558;BME280;12726;49.148;8.582;2022-10-23T10:14:38;100121.09;;;21.89;55.22
24558;BME280;12726;49.148;8.582;2022-10-23T10:17:34;100128.44;;;21.51;55.16
24558;BME280;12726;49.148;8.582;2022-10-23T10:20:52;100128.19;;;21.71;57.36
24558;BME280;12726;49.148;8.582;2022-10-23T10:23:47;100123.47;;;21.77;55.63
24558;BME280;12726;49.148;8.582;2022-10-23T10:26:39;100115.03;;;21.73;57.94
24558;BME280;12726;49.148;8.582;2022-10-23T10:29:40;100104.44;;;21.85;56.88
24558;BME280;12726;49.148;8.582;2022-10-23T10:32:35;100108.19;;;21.71;57.15
24558;BME280;12726;49.148;8.582;2022-10-23T10:35:37;100089.66;;;22.05;57.46
24558;BME280;12726;49.148;8.582;2022-10-23T10:38:41;100085.13;;;22.52;54.60
24558;BME280;12726;49.148;8.582;2022-10-23T10:41:45;100076.28;;;23.61;51.92
24558;BME280;12726;49.148;8.582;2022-10-23T10:44:50;100060.13;;;25.29;46.49
24558;BME280;12726;49.148;8.582;2022-10-23T10:47:43;100067.09;;;25.83;46.27
24558;BME280;12726;49.148;8.582;2022-10-23T10:50:40;100063.03;;;25.32;47.69
24558;BME280;12726;49.148;8.582;2022-10-23T10:53:33;100079.06;;;24.46;50.69
24558;BME280;12726;49.148;8.582;2022-10-23T10:56:30;100081.63;;;25.18;50.62
24558;BME280;12726;49.148;8.582;2022-10-23T10:59:21;100078.63;;;25.94;44.39
24558;BME280;12726;49.148;8.582;2022-10-23T11:02:20;100084.13;;;25.28;44.44
24558;BME280;12726;49.148;8.582;2022-10-23T11:05:14;100082.69;;;23.84;49.58
24558;BME280;12726;49.148;8.582;2022-10-23T11:08:05;100080.84;;;23.38;50.23
24558;BME280;12726;49.148;8.582;2022-10-23T11:10:54;100073.66;;;22.82;51.16
24558;BME280;12726;49.148;8.582;2022-10-23T11:13:44;100064.13;;;22.61;53.51
24558;BME280;12726;49.148;8.582;2022-10-23T11:16:32;100047.22;;;22.54;53.05
24558;BME280;12726;49.148;8.582;2022-10-23T11:19:21;100040.75;;;22.31;54.10
24558;BME280;12726;49.148;8.582;2022-10-23T11:22:11;100040.00;;;22.44;56.04
24558;BME280;12726;49.148;8.582;2022-10-23T11:25:23;100042.75;;;22.77;55.80
24558;BME280;12726;49.148;8.582;2022-10-23T11:28:21;100040.72;;;22.82;55.96
24558;BME280;12726;49.148;8.582;2022-10-23T11:31:19;100038.78;;;22.83;56.63
24558;BME280;12726;49.148;8.582;2022-10-23T11:34:16;100031.25;;;22.75;56.92
24558;BME280;12726;49.148;8.582;2022-10-23T11:37:07;100025.53;;;22.71;57.03
24558;BME280;12726;49.148;8.582;2022-10-23T11:39:58;100018.16;;;22.85;56.47
24558;BME280;12726;49.148;8.582;2022-10-23T11:42:46;100020.41;;;22.97;56.46
24558;BME280;12726;49.148;8.582;2022-10-23T11:45:33;100010.25;;;23.52;54.94
24558;BME280;12726;49.148;8.582;2022-10-23T11:48:22;100022.59;;;25.11;51.47
24558;BME280;12726;49.148;8.582;2022-10-23T11:51:26;99999.63;;;27.05;46.85
24558;BME280;12726;49.148;8.582;2022-10-23T11:54:22;99991.53;;;28.21;43.09
24558;BME280;12726;49.148;8.582;2022-10-23T11:57:11;99997.91;;;28.66;41.12
24558;BME280;12726;49.148;8.582;2022-10-23T11:59:58;99992.75;;;28.32;41.51
24558;BME280;12726;49.148;8.582;2022-10-23T12:02:49;99986.28;;;27.86;42.81
24558;BME280;12726;49.148;8.582;2022-10-23T12:08:19;99977.63;;;26.70;45.18
24558;BME280;12726;49.148;8.582;2022-10-23T12:11:38;99988.25;;;26.17;46.07
24558;BME280;12726;49.148;8.582;2022-10-23T12:14:27;99986.59;;;25.55;48.38
24558;BME280;12726;49.148;8.582;2022-10-23T12:17:31;99986.75;;;24.93;49.24
24558;BME280;12726;49.148;8.582;2022-10-23T12:20:29;99977.59;;;24.53;50.67
24558;BME280;12726;49.148;8.582;2022-10-23T12:23:37;99959.66;;;24.56;51.30
24558;BME280;12726;49.148;8.582;2022-10-23T12:26:47;99957.94;;;24.69;50.82
24558;BME280;12726;49.148;8.582;2022-10-23T12:29:47;99953.41;;;25.04;50.84
24558;BME280;12726;49.148;8.582;2022-10-23T12:32:45;99959.81;;;25.47;49.36
24558;BME280;12726;49.148;8.582;2022-10-23T12:36:11;99947.97;;;25.47;49.12
24558;BME280;12726;49.148;8.582;2022-10-23T12:39:01;99955.19;;;25.08;48.77
24558;BME280;12726;49.148;8.582;2022-10-23T12:41:46;99939.13;;;24.93;49.53
24558;BME280;12726;49.148;8.582;2022-10-23T12:44:32;99937.53;;;24.70;50.10
24558;BME280;12726;49.148;8.582;2022-10-23T12:47:17;99933.28;;;24.33;52.26
24558;BME280;12726;49.148;8.582;2022-10-23T12:50:15;99926.06;;;24.45;51.21
24558;BME280;12726;49.148;8.582;2022-10-23T12:53:04;99916.63;;;24.29;53.14
24558;BME280;12726;49.148;8.582;2022-10-23T12:55:56;99908.81;;;24.23;52.50
24558;BME280;12726;49.148;8.582;2022-10-23T12:58:46;99897.16;;;24.03;54.06
24558;BME280;12726;49.148;8.582;2022-10-23T13:01:33;99884.97;;;23.73;54.98
24558;BME280;12726;49.148;8.582;2022-10-23T13:04:27;99891.44;;;23.69;54.53
24558;BME280;12726;49.148;8.582;2022-10-23T13:07:13;99884.72;;;23.61;54.87
24558;BME280;12726;49.148;8.582;2022-10-23T13:09:59;99884.28;;;23.68;55.18
24558;BME280;12726;49.148;8.582;2022-10-23T13:12:54;99875.81;;;23.56;56.28
24558;BME280;12726;49.148;8.582;2022-10-23T13:15:41;99879.09;;;23.66;56.87
24558;BME280;12726;49.148;8.582;2022-10-23T13:18:26;99860.00;;;23.84;55.80
24558;BME280;12726;49.148;8.582;2022-10-23T13:21:16;99865.44;;;23.75;56.95
24558;BME280;12726;49.148;8.582;2022-10-23T13:24:02;99863.31;;;23.72;56.20
24558;BME280;12726;49.148;8.582;2022-10-23T13:26:47;99858.13;;;23.70;55.89
24558;BME280;12726;49.148;8.582;2022-10-23T13:29:34;99856.13;;;23.85;55.43
24558;BME280;12726;49.148;8.582;2022-10-23T13:32:22;99856.28;;;23.79;56.06
24558;BME280;12726;49.148;8.582;2022-10-23T13:35:19;99860.00;;;23.84;55.16
24558;BME280;12726;49.148;8.582;2022-10-23T13:38:08;99850.81;;;23.88;54.92
24558;BME280;12726;49.148;8.582;2022-10-23T13:40:54;99851.53;;;23.71;50.96
24558;BME280;12726;49.148;8.582;2022-10-23T13:43:40;99843.00;;;23.59;51.46
24558;BME280;12726;49.148;8.582;2022-10-23T13:46:27;99842.03;;;23.55;51.64
24558;BME280;12726;49.148;8.582;2022-10-23T13:49:13;99844.91;;;23.72;50.69
24558;BME280;12726;49.148;8.582;2022-10-23T13:51:59;99841.41;;;23.58;51.48
24558;BME280;12726;49.148;8.582;2022-10-23T13:54:44;99834.66;;;23.64;53.16
24558;BME280;12726;49.148;8.582;2022-10-23T13:57:29;99841.78;;;23.65;53.77
24558;BME280;12726;49.148;8.582;2022-10-23T14:00:15;99823.72;;;23.51;52.94
24558;BME280;12726;49.148;8.582;2022-10-23T14:03:02;99823.03;;;23.31;53.06
24558;BME280;12726;49.148;8.582;2022-10-23T14:05:48;99823.97;;;23.27;54.32
24558;BME280;12726;49.148;8.582;2022-10-23T14:08:33;99819.06;;;23.15;55.08
24558;BME280;12726;49.148;8.582;2022-10-23T14:11:19;99824.47;;;23.07;56.39
24558;BME280;12726;49.148;8.582;2022-10-23T14:14:05;99811.88;;;22.92;57.87
24558;BME280;12726;49.148;8.582;2022-10-23T14:16:50;99805.09;;;22.76;59.34
24558;BME280;12726;49.148;8.582;2022-10-23T14:19:37;99804.28;;;22.61;59.49
24558;BME280;12726;49.148;8.582;2022-10-23T14:22:22;99816.19;;;22.43;59.71
24558;BME280;12726;49.148;8.582;2022-10-23T14:25:08;99814.56;;;22.29;60.19
24558;BME280;12726;49.148;8.582;2022-10-23T14:27:54;99821.13;;;22.14;60.73
24558;BME280;12726;49.148;8.582;2022-10-23T14:30:39;99815.53;;;22.05;61.13
24558;BME280;12726;49.148;8.582;2022-10-23T14:33:24;99813.75;;;21.96;61.20
24558;BME280;12726;49.148;8.582;2022-10-23T14:36:11;99821.66;;;21.83;61.95
24558;BME280;12726;49.148;8.582;2022-10-23T14:38:58;99811.19;;;21.72;62.69
24558;BME280;12726;49.148;8.582;2022-10-23T14:41:43;99810.88;;;21.73;63.38
24558;BME280;12726;49.148;8.582;2022-10-23T14:44:29;99812.28;;;21.71;62.89